sensor_id;sensor_type;location;lat;lon;timestamp;P1;durP1;ratioP1;P2;durP2;ratioP2
10226;SDS011;15634;48.766;2.272;2023-05-07T00:01:32;3.85;;;2.30;;
10226;SDS011;15634;48.766;2.272;2023-05-07T00:03:59;4.88;;;2.15;;
10226;SDS011;15634;48.766;2.272;2023-05-07T00:06:26;4.45;;;2.20;;
10226;SDS011;15634;48.766;2.272;2023-05-07T00:08:53;8.00;;;2.83;;
10226;SDS011;15634;48.766;2.272;2023-05-07T00:11:22;6.13;;;2.70;;
10226;SDS011;15634;48.766;2.272;2023-05-07T00:13:48;6.93;;;2.58;;
10226;SDS011;15634;48.766;2.272;2023-05-07T00:16:15;4.72;;;2.58;;
10226;SDS011;15634;48.766;2.272;2023-05-07T00:18:41;5.38;;;2.20;;
10226;SDS011;15634;48.766;2.272;2023-05-07T00:21:08;5.30;;;2.70;;
10226;SDS011;15634;48.766;2.272;2023-05-07T00:23:34;3.50;;;2.28;;
10226;SDS011;15634;48.766;2.272;2023-05-07T00:26:01;7.05;;;2.58;;
10226;SDS011;15634;48.766;2.272;2023-05-07T00:28:29;3.13;;;2.28;;
10226;SDS011;15634;48.766;2.272;2023-05-07T00:30:55;6.63;;;2.67;;
10226;SDS011;15634;48.766;2.272;2023-05-07T00:33:22;3.80;;;2.30;;
10226;SDS011;15634;48.766;2.272;2023-05-07T00:35:48;2.13;;;1.77;;
10226;SDS011;15634;48.766;2.272;2023-05-07T00:38:15;3.83;;;1.60;;
10226;SDS011;15634;48.766;2.272;2023-05-07T00:40:41;2.63;;;1.65;;
10226;SDS011;15634;48.766;2.272;2023-05-07T00:43:08;2.30;;;1.80;;
10226;SDS011;15634;48.766;2.272;2023-05-07T00:45:36;3.72;;;1.60;;
10226;SDS011;15634;48.766;2.272;2023-05-07T00:48:02;3.00;;;1.40;;
10226;SDS011;15634;48.766;2.272;2023-05-07T00:50:30;1.58;;;1.30;;
10226;SDS011;15634;48.766;2.272;2023-05-07T00:52:58;3.03;;;1.50;;
10226;SDS011;15634;48.766;2.272;2023-05-07T00:55:25;1.50;;;1.30;;
10226;SDS011;15634;48.766;2.272;2023-05-07T00:57:52;2.28;;;1.30;;
10226;SDS011;15634;48.766;2.272;2023-05-07T01:00:18;3.70;;;1.20;;
10226;SDS011;15634;48.766;2.272;2023-05-07T01:02:46;3.28;;;1.50;;
10226;SDS011;15634;48.766;2.272;2023-05-07T01:05:14;1.80;;;1.23;;
10226;SDS011;15634;48.766;2.272;2023-05-07T01:07:42;2.83;;;1.20;;
10226;SDS011;15634;48.766;2.272;2023-05-07T01:10:09;2.67;;;1.67;;
10226;SDS011;15634;48.766;2.272;2023-05-07T01:12:37;2.10;;;1.38;;
10226;SDS011;15634;48.766;2.272;2023-05-07T01:15:04;1.20;;;1.08;;
10226;SDS011;15634;48.766;2.272;2023-05-07T01:17:32;3.15;;;1.50;;
10226;SDS011;15634;48.766;2.272;2023-05-07T01:20:01;4.30;;;1.27;;
10226;SDS011;15634;48.766;2.272;2023-05-07T01:22:31;2.78;;;1.58;;
10226;SDS011;15634;48.766;2.272;2023-05-07T01:24:58;3.95;;;1.80;;
10226;SDS011;15634;48.766;2.272;2023-05-07T01:27:26;3.10;;;1.92;;
10226;SDS011;15634;48.766;2.272;2023-05-07T01:29:53;3.10;;;1.75;;
10226;SDS011;15634;48.766;2.272;2023-05-07T01:32:21;2.70;;;2.00;;
10226;SDS011;15634;48.766;2.272;2023-05-07T01:34:50;2.85;;;2.00;;
10226;SDS011;15634;48.766;2.272;2023-05-07T01:37:19;3.20;;;2.13;;
10226;SDS011;15634;48.766;2.272;2023-05-07T01:39:47;3.72;;;2.28;;
10226;SDS011;15634;48.766;2.272;2023-05-07T01:42:14;3.85;;;1.98;;
10226;SDS011;15634;48.766;2.272;2023-05-07T01:44:41;3.20;;;2.00;;
10226;SDS011;15634;48.766;2.272;2023-05-07T01:47:07;1.92;;;1.70;;
10226;SDS011;15634;48.766;2.272;2023-05-07T01:49:34;4.10;;;2.10;;
10226;SDS011;15634;48.766;2.272;2023-05-07T01:52:01;3.42;;;1.85;;
10226;SDS011;15634;48.766;2.272;2023-05-07T01:54:28;6.30;;;1.75;;
10226;SDS011;15634;48.766;2.272;2023-05-07T01:56:57;2.10;;;1.65;;
10226;SDS011;15634;48.766;2.272;2023-05-07T01:59:23;2.00;;;1.80;;
10226;SDS011;15634;48.766;2.272;2023-05-07T02:01:50;3.50;;;1.70;;
10226;SDS011;15634;48.766;2.272;2023-05-07T02:04:16;2.42;;;1.58;;
10226;SDS011;15634;48.766;2.272;2023-05-07T02:06:43;2.33;;;1.63;;
10226;SDS011;15634;48.766;2.272;2023-05-07T02:09:10;2.03;;;1.65;;
10226;SDS011;15634;48.766;2.272;2023-05-07T02:11:36;1.92;;;1.60;;
10226;SDS011;15634;48.766;2.272;2023-05-07T02:14:05;2.22;;;1.13;;
10226;SDS011;15634;48.766;2.272;2023-05-07T02:16:31;2.22;;;1.50;;
10226;SDS011;15634;48.766;2.272;2023-05-07T02:18:58;2.00;;;1.60;;
10226;SDS011;15634;48.766;2.272;2023-05-07T02:21:24;5.28;;;1.60;;
10226;SDS011;15634;48.766;2.272;2023-05-07T02:23:51;1.52;;;1.38;;
10226;SDS011;15634;48.766;2.272;2023-05-07T02:26:17;4.32;;;1.65;;
10226;SDS011;15634;48.766;2.272;2023-05-07T02:28:44;3.05;;;1.67;;
10226;SDS011;15634;48.766;2.272;2023-05-07T02:31:12;2.17;;;1.60;;
10226;SDS011;15634;48.766;2.272;2023-05-07T02:33:38;2.15;;;1.50;;
10226;SDS011;15634;48.766;2.272;2023-05-07T02:36:05;3.33;;;1.48;;
10226;SDS011;15634;48.766;2.272;2023-05-07T02:38:33;1.90;;;1.50;;
10226;SDS011;15634;48.766;2.272;2023-05-07T02:41:00;1.88;;;1.30;;
10226;SDS011;15634;48.766;2.272;2023-05-07T02:43:26;2.53;;;1.45;;
10226;SDS011;15634;48.766;2.272;2023-05-07T02:45:59;3.20;;;1.60;;
10226;SDS011;15634;48.766;2.272;2023-05-07T02:48:28;2.65;;;1.77;;
10226;SDS011;15634;48.766;2.272;2023-05-07T02:50:54;4.95;;;2.03;;
10226;SDS011;15634;48.766;2.272;2023-05-07T02:53:21;3.08;;;1.40;;
10226;SDS011;15634;48.766;2.272;2023-05-07T02:55:47;2.85;;;1.67;;
10226;SDS011;15634;48.766;2.272;2023-05-07T02:58:14;5.45;;;2.72;;
10226;SDS011;15634;48.766;2.272;2023-05-07T03:00:40;3.53;;;2.20;;
10226;SDS011;15634;48.766;2.272;2023-05-07T03:03:07;3.47;;;1.98;;
10226;SDS011;15634;48.766;2.272;2023-05-07T03:05:35;6.15;;;3.33;;
10226;SDS011;15634;48.766;2.272;2023-05-07T03:08:01;4.05;;;2.30;;
10226;SDS011;15634;48.766;2.272;2023-05-07T03:10:29;3.05;;;1.77;;
10226;SDS011;15634;48.766;2.272;2023-05-07T03:12:55;3.83;;;2.03;;
10226;SDS011;15634;48.766;2.272;2023-05-07T03:15:22;4.00;;;1.70;;
10226;SDS011;15634;48.766;2.272;2023-05-07T03:17:48;2.05;;;1.25;;
10226;SDS011;15634;48.766;2.272;2023-05-07T03:20:15;6.20;;;2.95;;
10226;SDS011;15634;48.766;2.272;2023-05-07T03:22:43;2.20;;;1.50;;
10226;SDS011;15634;48.766;2.272;2023-05-07T03:25:10;2.53;;;1.35;;
10226;SDS011;15634;48.766;2.272;2023-05-07T03:27:37;2.40;;;1.40;;
10226;SDS011;15634;48.766;2.272;2023-05-07T03:30:03;1.35;;;1.13;;
10226;SDS011;15634;48.766;2.272;2023-05-07T03:32:31;2.10;;;1.33;;
10226;SDS011;15634;48.766;2.272;2023-05-07T03:34:58;1.30;;;1.20;;
10226;SDS011;15634;48.766;2.272;2023-05-07T03:37:25;1.88;;;1.10;;
10226;SDS011;15634;48.766;2.272;2023-05-07T03:39:52;2.97;;;1.67;;
10226;SDS011;15634;48.766;2.272;2023-05-07T03:42:19;1.85;;;1.40;;
10226;SDS011;15634;48.766;2.272;2023-05-07T03:44:46;3.25;;;1.20;;
10226;SDS011;15634;48.766;2.272;2023-05-07T03:47:13;2.33;;;1.50;;
10226;SDS011;15634;48.766;2.272;2023-05-07T03:49:39;2.10;;;1.30;;
10226;SDS011;15634;48.766;2.272;2023-05-07T03:52:06;3.63;;;1.27;;
10226;SDS011;15634;48.766;2.272;2023-05-07T03:54:32;2.22;;;1.27;;
10226;SDS011;15634;48.766;2.272;2023-05-07T03:57:00;1.35;;;1.23;;
10226;SDS011;15634;48.766;2.272;2023-05-07T03:59:27;2.58;;;1.48;;
10226;SDS011;15634;48.766;2.272;2023-05-07T04:01:54;1.42;;;1.00;;
10226;SDS011;15634;48.766;2.272;2023-05-07T04:04:20;3.15;;;1.30;;
10226;SDS011;15634;48.766;2.272;2023-05-07T04:06:47;2.10;;;1.40;;
10226;SDS011;15634;48.766;2.272;2023-05-07T04:09:13;1.38;;;1.27;;
10226;SDS011;15634;48.766;2.272;2023-05-07T04:11:40;3.42;;;1.42;;
10226;SDS011;15634;48.766;2.272;2023-05-07T04:14:08;1.42;;;1.33;;
10226;SDS011;15634;48.766;2.272;2023-05-07T04:16:34;3.50;;;1.85;;
10226;SDS011;15634;48.766;2.272;2023-05-07T04:19:01;4.85;;;1.30;;
10226;SDS011;15634;48.766;2.272;2023-05-07T04:21:28;3.33;;;1.45;;
10226;SDS011;15634;48.766;2.272;2023-05-07T04:23:55;1.88;;;1.35;;
10226;SDS011;15634;48.766;2.272;2023-05-07T04:26:22;1.80;;;1.45;;
10226;SDS011;15634;48.766;2.272;2023-05-07T04:28:49;1.88;;;1.15;;
10226;SDS011;15634;48.766;2.272;2023-05-07T04:31:17;3.63;;;1.60;;
10226;SDS011;15634;48.766;2.272;2023-05-07T04:33:43;2.95;;;1.60;;
10226;SDS011;15634;48.766;2.272;2023-05-07T04:36:10;3.60;;;1.15;;
10226;SDS011;15634;48.766;2.272;2023-05-07T04:38:37;1.75;;;1.45;;
10226;SDS011;15634;48.766;2.272;2023-05-07T04:41:04;3.88;;;1.60;;
10226;SDS011;15634;48.766;2.272;2023-05-07T04:43:32;2.50;;;1.33;;
10226;SDS011;15634;48.766;2.272;2023-05-07T04:45:59;2.72;;;1.30;;
10226;SDS011;15634;48.766;2.272;2023-05-07T04:48:27;1.95;;;1.30;;
10226;SDS011;15634;48.766;2.272;2023-05-07T04:50:55;1.58;;;1.48;;
10226;SDS011;15634;48.766;2.272;2023-05-07T04:53:21;1.98;;;1.60;;
10226;SDS011;15634;48.766;2.272;2023-05-07T04:55:48;1.50;;;1.30;;
10226;SDS011;15634;48.766;2.272;2023-05-07T04:58:14;3.53;;;1.60;;
10226;SDS011;15634;48.766;2.272;2023-05-07T05:00:41;2.25;;;1.70;;
10226;SDS011;15634;48.766;2.272;2023-05-07T05:03:08;2.88;;;1.55;;
10226;SDS011;15634;48.766;2.272;2023-05-07T05:05:36;2.85;;;1.25;;
10226;SDS011;15634;48.766;2.272;2023-05-07T05:08:03;4.57;;;1.75;;
10226;SDS011;15634;48.766;2.272;2023-05-07T05:10:30;2.83;;;1.38;;
10226;SDS011;15634;48.766;2.272;2023-05-07T05:12:56;3.60;;;1.80;;
10226;SDS011;15634;48.766;2.272;2023-05-07T05:15:23;3.10;;;1.55;;
10226;SDS011;15634;48.766;2.272;2023-05-07T05:17:49;1.77;;;1.20;;
10226;SDS011;15634;48.766;2.272;2023-05-07T05:20:16;1.90;;;1.20;;
10226;SDS011;15634;48.766;2.272;2023-05-07T05:22:44;1.38;;;1.20;;
10226;SDS011;15634;48.766;2.272;2023-05-07T05:25:11;1.70;;;1.20;;
10226;SDS011;15634;48.766;2.272;2023-05-07T05:27:37;2.33;;;1.80;;
10226;SDS011;15634;48.766;2.272;2023-05-07T05:30:05;5.38;;;3.17;;
10226;SDS011;15634;48.766;2.272;2023-05-07T05:32:32;1.63;;;1.40;;
10226;SDS011;15634;48.766;2.272;2023-05-07T05:34:59;2.50;;;1.45;;
10226;SDS011;15634;48.766;2.272;2023-05-07T05:37:25;1.25;;;1.15;;
10226;SDS011;15634;48.766;2.272;2023-05-07T05:39:53;3.15;;;1.15;;
10226;SDS011;15634;48.766;2.272;2023-05-07T05:42:20;2.70;;;1.63;;
10226;SDS011;15634;48.766;2.272;2023-05-07T05:44:47;2.65;;;1.60;;
10226;SDS011;15634;48.766;2.272;2023-05-07T05:47:14;1.40;;;1.30;;
10226;SDS011;15634;48.766;2.272;2023-05-07T05:49:41;1.65;;;1.30;;
10226;SDS011;15634;48.766;2.272;2023-05-07T05:52:08;4.00;;;1.63;;
10226;SDS011;15634;48.766;2.272;2023-05-07T05:54:34;1.42;;;1.20;;
10226;SDS011;15634;48.766;2.272;2023-05-07T05:57:02;3.97;;;1.25;;
10226;SDS011;15634;48.766;2.272;2023-05-07T05:59:29;1.58;;;1.20;;
10226;SDS011;15634;48.766;2.272;2023-05-07T06:01:56;1.27;;;1.15;;
10226;SDS011;15634;48.766;2.272;2023-05-07T06:04:23;4.00;;;1.30;;
10226;SDS011;15634;48.766;2.272;2023-05-07T06:06:49;1.40;;;1.20;;
10226;SDS011;15634;48.766;2.272;2023-05-07T06:09:16;2.00;;;1.27;;
10226;SDS011;15634;48.766;2.272;2023-05-07T06:11:42;2.75;;;1.40;;
10226;SDS011;15634;48.766;2.272;2023-05-07T06:14:10;2.35;;;1.40;;
10226;SDS011;15634;48.766;2.272;2023-05-07T06:16:37;2.33;;;1.27;;
10226;SDS011;15634;48.766;2.272;2023-05-07T06:19:03;1.92;;;1.48;;
10226;SDS011;15634;48.766;2.272;2023-05-07T06:21:30;2.22;;;1.40;;
10226;SDS011;15634;48.766;2.272;2023-05-07T06:23:57;3.10;;;1.70;;
10226;SDS011;15634;48.766;2.272;2023-05-07T06:26:23;3.25;;;1.45;;
10226;SDS011;15634;48.766;2.272;2023-05-07T06:28:50;3.28;;;1.80;;
10226;SDS011;15634;48.766;2.272;2023-05-07T06:31:18;2.88;;;1.70;;
10226;SDS011;15634;48.766;2.272;2023-05-07T06:33:46;4.43;;;1.40;;
10226;SDS011;15634;48.766;2.272;2023-05-07T06:36:14;2.22;;;1.70;;
10226;SDS011;15634;48.766;2.272;2023-05-07T06:38:41;2.60;;;1.48;;
10226;SDS011;15634;48.766;2.272;2023-05-07T06:41:08;2.13;;;1.58;;
10226;SDS011;15634;48.766;2.272;2023-05-07T06:43:35;2.90;;;1.60;;
10226;SDS011;15634;48.766;2.272;2023-05-07T06:46:02;2.63;;;2.05;;
10226;SDS011;15634;48.766;2.272;2023-05-07T06:48:30;3.22;;;1.70;;
10226;SDS011;15634;48.766;2.272;2023-05-07T06:50:56;3.08;;;1.60;;
10226;SDS011;15634;48.766;2.272;2023-05-07T06:53:23;2.88;;;1.65;;
10226;SDS011;15634;48.766;2.272;2023-05-07T06:55:50;2.85;;;1.67;;
10226;SDS011;15634;48.766;2.272;2023-05-07T06:58:18;3.08;;;1.70;;
10226;SDS011;15634;48.766;2.272;2023-05-07T07:00:44;3.58;;;1.55;;
10226;SDS011;15634;48.766;2.272;2023-05-07T07:03:11;2.78;;;1.75;;
10226;SDS011;15634;48.766;2.272;2023-05-07T07:05:39;2.25;;;1.58;;
10226;SDS011;15634;48.766;2.272;2023-05-07T07:08:06;2.83;;;1.70;;
10226;SDS011;15634;48.766;2.272;2023-05-07T07:10:33;2.85;;;1.67;;
10226;SDS011;15634;48.766;2.272;2023-05-07T07:12:59;2.25;;;1.83;;
10226;SDS011;15634;48.766;2.272;2023-05-07T07:15:26;2.63;;;1.45;;
10226;SDS011;15634;48.766;2.272;2023-05-07T07:17:53;2.03;;;1.67;;
10226;SDS011;15634;48.766;2.272;2023-05-07T07:20:19;1.73;;;1.50;;
10226;SDS011;15634;48.766;2.272;2023-05-07T07:22:48;2.22;;;1.75;;
10226;SDS011;15634;48.766;2.272;2023-05-07T07:25:14;2.50;;;1.60;;
10226;SDS011;15634;48.766;2.272;2023-05-07T07:27:41;1.95;;;1.50;;
10226;SDS011;15634;48.766;2.272;2023-05-07T07:30:08;2.63;;;1.90;;
10226;SDS011;15634;48.766;2.272;2023-05-07T07:32:35;1.52;;;1.35;;
10226;SDS011;15634;48.766;2.272;2023-05-07T07:35:02;3.30;;;1.85;;
10226;SDS011;15634;48.766;2.272;2023-05-07T07:37:29;1.92;;;1.58;;
10226;SDS011;15634;48.766;2.272;2023-05-07T07:39:57;2.80;;;1.45;;
10226;SDS011;15634;48.766;2.272;2023-05-07T07:42:24;2.38;;;1.58;;
10226;SDS011;15634;48.766;2.272;2023-05-07T07:44:51;2.70;;;1.63;;
10226;SDS011;15634;48.766;2.272;2023-05-07T07:47:18;2.20;;;1.58;;
10226;SDS011;15634;48.766;2.272;2023-05-07T07:49:44;1.90;;;1.67;;
10226;SDS011;15634;48.766;2.272;2023-05-07T07:52:11;3.95;;;1.55;;
10226;SDS011;15634;48.766;2.272;2023-05-07T07:54:37;3.42;;;1.80;;
10226;SDS011;15634;48.766;2.272;2023-05-07T07:57:06;3.85;;;2.67;;
10226;SDS011;15634;48.766;2.272;2023-05-07T07:59:32;4.32;;;2.50;;
10226;SDS011;15634;48.766;2.272;2023-05-07T08:01:59;3.60;;;2.00;;
10226;SDS011;15634;48.766;2.272;2023-05-07T08:04:25;3.97;;;2.10;;
10226;SDS011;15634;48.766;2.272;2023-05-07T08:06:52;2.13;;;1.65;;
10226;SDS011;15634;48.766;2.272;2023-05-07T08:09:19;2.35;;;1.75;;
10226;SDS011;15634;48.766;2.272;2023-05-07T08:11:46;2.63;;;1.85;;
10226;SDS011;15634;48.766;2.272;2023-05-07T08:14:14;2.00;;;1.45;;
10226;SDS011;15634;48.766;2.272;2023-05-07T08:16:40;1.95;;;1.65;;
10226;SDS011;15634;48.766;2.272;2023-05-07T08:19:07;2.53;;;1.75;;
10226;SDS011;15634;48.766;2.272;2023-05-07T08:21:34;1.50;;;1.40;;
10226;SDS011;15634;48.766;2.272;2023-05-07T08:24:00;1.60;;;1.50;;
10226;SDS011;15634;48.766;2.272;2023-05-07T08:26:27;2.20;;;1.58;;
10226;SDS011;15634;48.766;2.272;2023-05-07T08:28:54;3.92;;;1.83;;
10226;SDS011;15634;48.766;2.272;2023-05-07T08:31:22;4.05;;;1.80;;
10226;SDS011;15634;48.766;2.272;2023-05-07T08:33:49;2.28;;;1.90;;
10226;SDS011;15634;48.766;2.272;2023-05-07T08:36:16;2.92;;;2.00;;
10226;SDS011;15634;48.766;2.272;2023-05-07T08:38:44;5.38;;;2.92;;
10226;SDS011;15634;48.766;2.272;2023-05-07T08:41:11;6.53;;;3.20;;
10226;SDS011;15634;48.766;2.272;2023-05-07T08:43:38;7.78;;;3.58;;
10226;SDS011;15634;48.766;2.272;2023-05-07T08:46:08;19.63;;;9.65;;
10226;SDS011;15634;48.766;2.272;2023-05-07T08:48:36;7.88;;;4.28;;
10226;SDS011;15634;48.766;2.272;2023-05-07T08:51:03;3.50;;;2.25;;
10226;SDS011;15634;48.766;2.272;2023-05-07T08:53:30;3.10;;;1.83;;
10226;SDS011;15634;48.766;2.272;2023-05-07T08:55:57;2.65;;;1.65;;
10226;SDS011;15634;48.766;2.272;2023-05-07T08:58:24;3.30;;;1.60;;
10226;SDS011;15634;48.766;2.272;2023-05-07T09:00:51;3.28;;;1.55;;
10226;SDS011;15634;48.766;2.272;2023-05-07T09:03:19;3.20;;;1.58;;
10226;SDS011;15634;48.766;2.272;2023-05-07T09:05:47;2.58;;;1.88;;
10226;SDS011;15634;48.766;2.272;2023-05-07T09:08:14;2.20;;;1.73;;
10226;SDS011;15634;48.766;2.272;2023-05-07T09:10:41;1.75;;;1.60;;
10226;SDS011;15634;48.766;2.272;2023-05-07T09:13:08;2.95;;;1.70;;
10226;SDS011;15634;48.766;2.272;2023-05-07T09:15:35;2.30;;;1.75;;
10226;SDS011;15634;48.766;2.272;2023-05-07T09:18:02;2.58;;;1.80;;
10226;SDS011;15634;48.766;2.272;2023-05-07T09:20:30;6.60;;;3.63;;
10226;SDS011;15634;48.766;2.272;2023-05-07T09:22:58;8.77;;;3.15;;
10226;SDS011;15634;48.766;2.272;2023-05-07T09:25:28;3.03;;;2.10;;
10226;SDS011;15634;48.766;2.272;2023-05-07T09:27:55;2.08;;;1.52;;
10226;SDS011;15634;48.766;2.272;2023-05-07T09:30:22;2.88;;;1.92;;
10226;SDS011;15634;48.766;2.272;2023-05-07T09:32:49;4.25;;;2.00;;
10226;SDS011;15634;48.766;2.272;2023-05-07T09:35:16;3.08;;;2.00;;
10226;SDS011;15634;48.766;2.272;2023-05-07T09:37:43;2.28;;;1.95;;
10226;SDS011;15634;48.766;2.272;2023-05-07T09:40:21;2.85;;;2.33;;
10226;SDS011;15634;48.766;2.272;2023-05-07T09:42:48;3.17;;;1.95;;
10226;SDS011;15634;48.766;2.272;2023-05-07T09:45:15;2.60;;;1.80;;
10226;SDS011;15634;48.766;2.272;2023-05-07T09:47:42;3.10;;;1.88;;
10226;SDS011;15634;48.766;2.272;2023-05-07T09:50:10;2.85;;;2.13;;
10226;SDS011;15634;48.766;2.272;2023-05-07T09:52:39;2.58;;;2.10;;
10226;SDS011;15634;48.766;2.272;2023-05-07T09:55:07;3.22;;;2.10;;
10226;SDS011;15634;48.766;2.272;2023-05-07T09:57:35;2.85;;;2.00;;
10226;SDS011;15634;48.766;2.272;2023-05-07T10:00:02;3.67;;;2.22;;
10226;SDS011;15634;48.766;2.272;2023-05-07T10:02:30;2.03;;;1.83;;
10226;SDS011;15634;48.766;2.272;2023-05-07T10:04:58;16.77;;;8.77;;
10226;SDS011;15634;48.766;2.272;2023-05-07T10:07:25;8.80;;;5.13;;
10226;SDS011;15634;48.766;2.272;2023-05-07T10:09:53;5.72;;;3.10;;
10226;SDS011;15634;48.766;2.272;2023-05-07T10:12:20;6.40;;;4.13;;
10226;SDS011;15634;48.766;2.272;2023-05-07T10:14:48;5.60;;;2.88;;
10226;SDS011;15634;48.766;2.272;2023-05-07T10:17:16;5.60;;;3.13;;
10226;SDS011;15634;48.766;2.272;2023-05-07T10:19:44;5.22;;;3.10;;
10226;SDS011;15634;48.766;2.272;2023-05-07T10:22:11;4.72;;;2.90;;
10226;SDS011;15634;48.766;2.272;2023-05-07T10:24:40;3.05;;;2.30;;
10226;SDS011;15634;48.766;2.272;2023-05-07T10:27:07;3.60;;;2.50;;
10226;SDS011;15634;48.766;2.272;2023-05-07T10:29:37;2.42;;;2.20;;
10226;SDS011;15634;48.766;2.272;2023-05-07T10:32:18;3.27;;;2.37;;
10226;SDS011;15634;48.766;2.272;2023-05-07T10:34:53;2.60;;;2.25;;
10226;SDS011;15634;48.766;2.272;2023-05-07T10:37:21;3.13;;;2.30;;
10226;SDS011;15634;48.766;2.272;2023-05-07T10:39:48;4.25;;;2.47;;
10226;SDS011;15634;48.766;2.272;2023-05-07T10:42:14;3.42;;;2.20;;
10226;SDS011;15634;48.766;2.272;2023-05-07T10:44:41;3.60;;;2.42;;
10226;SDS011;15634;48.766;2.272;2023-05-07T10:47:08;3.28;;;2.15;;
10226;SDS011;15634;48.766;2.272;2023-05-07T10:49:38;3.33;;;2.03;;
10226;SDS011;15634;48.766;2.272;2023-05-07T10:52:43;3.15;;;2.10;;
10226;SDS011;15634;48.766;2.272;2023-05-07T10:55:19;3.17;;;2.00;;
10226;SDS011;15634;48.766;2.272;2023-05-07T10:57:47;3.53;;;1.98;;
10226;SDS011;15634;48.766;2.272;2023-05-07T11:03:09;4.07;;;2.30;;
10226;SDS011;15634;48.766;2.272;2023-05-07T11:05:38;3.15;;;1.98;;
10226;SDS011;15634;48.766;2.272;2023-05-07T11:08:05;3.05;;;1.98;;
10226;SDS011;15634;48.766;2.272;2023-05-07T11:10:47;2.95;;;1.80;;
10226;SDS011;15634;48.766;2.272;2023-05-07T11:13:14;3.10;;;2.10;;
10226;SDS011;15634;48.766;2.272;2023-05-07T11:15:42;3.72;;;2.40;;
10226;SDS011;15634;48.766;2.272;2023-05-07T11:18:10;4.63;;;2.47;;
10226;SDS011;15634;48.766;2.272;2023-05-07T11:20:46;3.50;;;2.20;;
10226;SDS011;15634;48.766;2.272;2023-05-07T11:26:18;3.50;;;2.50;;
10226;SDS011;15634;48.766;2.272;2023-05-07T11:28:45;4.65;;;2.92;;
10226;SDS011;15634;48.766;2.272;2023-05-07T11:31:12;4.75;;;2.90;;
10226;SDS011;15634;48.766;2.272;2023-05-07T11:33:39;3.78;;;2.80;;
10226;SDS011;15634;48.766;2.272;2023-05-07T11:36:08;3.45;;;2.20;;
10226;SDS011;15634;48.766;2.272;2023-05-07T11:38:35;2.53;;;2.10;;
10226;SDS011;15634;48.766;2.272;2023-05-07T11:41:02;4.13;;;2.40;;
10226;SDS011;15634;48.766;2.272;2023-05-07T11:43:30;3.17;;;2.33;;
10226;SDS011;15634;48.766;2.272;2023-05-07T11:46:04;4.10;;;2.63;;
10226;SDS011;15634;48.766;2.272;2023-05-07T11:48:32;3.08;;;2.10;;
10226;SDS011;15634;48.766;2.272;2023-05-07T11:51:00;3.95;;;2.20;;
10226;SDS011;15634;48.766;2.272;2023-05-07T11:53:35;3.63;;;2.25;;
10226;SDS011;15634;48.766;2.272;2023-05-07T11:56:05;3.60;;;1.90;;
10226;SDS011;15634;48.766;2.272;2023-05-07T11:58:32;2.50;;;2.08;;
10226;SDS011;15634;48.766;2.272;2023-05-07T12:00:59;4.13;;;2.20;;
10226;SDS011;15634;48.766;2.272;2023-05-07T12:03:26;2.58;;;1.98;;
10226;SDS011;15634;48.766;2.272;2023-05-07T12:05:53;2.17;;;1.98;;
10226;SDS011;15634;48.766;2.272;2023-05-07T12:08:20;3.30;;;2.30;;
10226;SDS011;15634;48.766;2.272;2023-05-07T12:10:49;2.80;;;2.17;;
10226;SDS011;15634;48.766;2.272;2023-05-07T12:13:16;3.42;;;2.20;;
10226;SDS011;15634;48.766;2.272;2023-05-07T12:15:43;4.93;;;2.50;;
10226;SDS011;15634;48.766;2.272;2023-05-07T12:18:11;4.80;;;2.30;;
10226;SDS011;15634;48.766;2.272;2023-05-07T12:20:38;5.38;;;2.30;;
10226;SDS011;15634;48.766;2.272;2023-05-07T12:23:05;4.75;;;2.20;;
10226;SDS011;15634;48.766;2.272;2023-05-07T12:25:32;2.70;;;2.10;;
10226;SDS011;15634;48.766;2.272;2023-05-07T12:28:02;2.50;;;2.15;;
10226;SDS011;15634;48.766;2.272;2023-05-07T12:30:30;3.22;;;2.35;;
10226;SDS011;15634;48.766;2.272;2023-05-07T12:32:56;3.03;;;2.17;;
10226;SDS011;15634;48.766;2.272;2023-05-07T12:35:26;3.55;;;2.30;;
10226;SDS011;15634;48.766;2.272;2023-05-07T12:37:57;5.95;;;2.70;;
10226;SDS011;15634;48.766;2.272;2023-05-07T12:40:29;5.00;;;2.88;;
10226;SDS011;15634;48.766;2.272;2023-05-07T12:43:03;5.55;;;2.20;;
10226;SDS011;15634;48.766;2.272;2023-05-07T12:45:30;5.82;;;2.50;;
10226;SDS011;15634;48.766;2.272;2023-05-07T12:47:57;8.13;;;2.80;;
10226;SDS011;15634;48.766;2.272;2023-05-07T12:50:30;5.03;;;2.67;;
10226;SDS011;15634;48.766;2.272;2023-05-07T12:52:57;5.53;;;3.15;;
10226;SDS011;15634;48.766;2.272;2023-05-07T12:55:24;3.80;;;2.67;;
10226;SDS011;15634;48.766;2.272;2023-05-07T12:57:51;5.38;;;2.80;;
10226;SDS011;15634;48.766;2.272;2023-05-07T13:00:33;6.10;;;3.78;;
10226;SDS011;15634;48.766;2.272;2023-05-07T13:03:00;5.63;;;3.38;;
10226;SDS011;15634;48.766;2.272;2023-05-07T13:05:27;8.15;;;4.63;;
10226;SDS011;15634;48.766;2.272;2023-05-07T13:07:54;5.18;;;4.22;;
10226;SDS011;15634;48.766;2.272;2023-05-07T13:10:21;6.35;;;3.90;;
10226;SDS011;15634;48.766;2.272;2023-05-07T13:12:48;6.95;;;3.70;;
10226;SDS011;15634;48.766;2.272;2023-05-07T13:15:15;5.18;;;3.78;;
10226;SDS011;15634;48.766;2.272;2023-05-07T13:17:43;6.60;;;4.15;;
10226;SDS011;15634;48.766;2.272;2023-05-07T13:20:10;5.72;;;3.50;;
10226;SDS011;15634;48.766;2.272;2023-05-07T13:22:38;5.47;;;3.45;;
10226;SDS011;15634;48.766;2.272;2023-05-07T13:25:05;6.65;;;3.90;;
10226;SDS011;15634;48.766;2.272;2023-05-07T13:27:32;8.23;;;4.43;;
10226;SDS011;15634;48.766;2.272;2023-05-07T13:30:01;7.18;;;4.60;;
10226;SDS011;15634;48.766;2.272;2023-05-07T13:32:29;6.82;;;4.40;;
10226;SDS011;15634;48.766;2.272;2023-05-07T13:34:57;8.43;;;4.75;;
10226;SDS011;15634;48.766;2.272;2023-05-07T13:37:24;7.78;;;4.65;;
10226;SDS011;15634;48.766;2.272;2023-05-07T13:39:51;6.38;;;4.65;;
10226;SDS011;15634;48.766;2.272;2023-05-07T13:42:17;6.60;;;4.85;;
10226;SDS011;15634;48.766;2.272;2023-05-07T13:44:44;6.75;;;4.65;;
10226;SDS011;15634;48.766;2.272;2023-05-07T13:47:11;8.20;;;5.22;;
10226;SDS011;15634;48.766;2.272;2023-05-07T13:49:37;5.57;;;4.10;;
10226;SDS011;15634;48.766;2.272;2023-05-07T13:52:05;7.32;;;3.95;;
10226;SDS011;15634;48.766;2.272;2023-05-07T13:54:32;5.28;;;3.83;;
10226;SDS011;15634;48.766;2.272;2023-05-07T13:56:59;5.78;;;3.63;;
10226;SDS011;15634;48.766;2.272;2023-05-07T13:59:25;4.88;;;3.40;;
10226;SDS011;15634;48.766;2.272;2023-05-07T14:01:52;4.13;;;3.25;;
10226;SDS011;15634;48.766;2.272;2023-05-07T14:04:20;3.80;;;2.90;;
10226;SDS011;15634;48.766;2.272;2023-05-07T14:06:46;5.63;;;3.35;;
10226;SDS011;15634;48.766;2.272;2023-05-07T14:09:14;5.05;;;3.30;;
10226;SDS011;15634;48.766;2.272;2023-05-07T14:11:41;3.63;;;2.90;;
10226;SDS011;15634;48.766;2.272;2023-05-07T14:14:07;4.30;;;2.97;;
10226;SDS011;15634;48.766;2.272;2023-05-07T14:16:35;4.63;;;3.25;;
10226;SDS011;15634;48.766;2.272;2023-05-07T14:19:02;4.30;;;3.03;;
10226;SDS011;15634;48.766;2.272;2023-05-07T14:21:29;4.35;;;3.17;;
10226;SDS011;15634;48.766;2.272;2023-05-07T14:23:56;5.72;;;3.80;;
10226;SDS011;15634;48.766;2.272;2023-05-07T14:26:24;8.25;;;3.90;;
10226;SDS011;15634;48.766;2.272;2023-05-07T14:28:52;5.32;;;3.80;;
10226;SDS011;15634;48.766;2.272;2023-05-07T14:31:20;5.38;;;3.58;;
10226;SDS011;15634;48.766;2.272;2023-05-07T14:33:46;5.65;;;3.38;;
10226;SDS011;15634;48.766;2.272;2023-05-07T14:36:14;5.43;;;3.30;;
10226;SDS011;15634;48.766;2.272;2023-05-07T14:38:41;4.70;;;3.50;;
10226;SDS011;15634;48.766;2.272;2023-05-07T14:41:08;5.00;;;3.45;;
10226;SDS011;15634;48.766;2.272;2023-05-07T14:43:36;6.22;;;3.55;;
10226;SDS011;15634;48.766;2.272;2023-05-07T14:46:02;5.53;;;3.42;;
10226;SDS011;15634;48.766;2.272;2023-05-07T14:48:29;4.40;;;3.17;;
10226;SDS011;15634;48.766;2.272;2023-05-07T14:50:56;5.38;;;3.20;;
10226;SDS011;15634;48.766;2.272;2023-05-07T14:53:22;4.60;;;3.13;;
10226;SDS011;15634;48.766;2.272;2023-05-07T14:55:49;3.90;;;2.88;;